createdAt,value
2023-01-29T00:02:05.956Z,16.20
2023-01-29T00:04:34.211Z,11.10
2023-01-29T00:07:01.957Z,8.30
2023-01-29T00:09:29.727Z,10.10
2023-01-29T00:11:57.381Z,7.00
2023-01-29T00:14:26.684Z,6.70
2023-01-29T00:16:54.908Z,6.60
2023-01-29T00:19:22.723Z,7.00
2023-01-29T00:21:50.385Z,8.50
2023-01-29T00:24:18.177Z,7.80
2023-01-29T00:26:46.017Z,10.20
2023-01-29T00:29:14.088Z,7.90
2023-01-29T00:31:42.095Z,6.80
2023-01-29T00:34:09.919Z,7.20
2023-01-29T00:36:37.581Z,7.20
2023-01-29T00:39:10.974Z,6.50
2023-01-29T00:41:57.482Z,7.10
2023-01-29T00:44:43.886Z,8.10
2023-01-29T00:47:30.760Z,8.20
2023-01-29T00:49:58.562Z,6.30
2023-01-29T00:52:26.371Z,4.80
2023-01-29T00:54:54.188Z,5.30
2023-01-29T00:57:21.951Z,8.70
2023-01-29T00:59:49.715Z,7.30
2023-01-29T01:02:36.117Z,7.80
2023-01-29T01:05:03.983Z,9.60
2023-01-29T01:07:31.645Z,9.90
2023-01-29T01:10:18.552Z,8.60
2023-01-29T01:12:46.427Z,6.70
2023-01-29T01:15:14.195Z,8.50
2023-01-29T01:17:41.951Z,8.00
2023-01-29T01:20:09.820Z,9.10
2023-01-29T01:22:37.479Z,8.20
2023-01-29T01:25:05.140Z,7.00
2023-01-29T01:27:32.903Z,7.00
2023-01-29T01:30:00.665Z,6.10
2023-01-29T01:32:28.336Z,6.70
2023-01-29T01:34:56.095Z,8.20
2023-01-29T01:37:23.754Z,7.00
2023-01-29T01:39:51.416Z,7.30
2023-01-29T01:42:19.079Z,7.30
2023-01-29T01:44:46.739Z,7.60
2023-01-29T01:47:15.732Z,6.30
2023-01-29T01:49:43.395Z,4.20
2023-01-29T01:52:11.158Z,8.40
2023-01-29T01:54:38.790Z,8.50
2023-01-29T01:57:09.564Z,13.50
2023-01-29T01:59:37.318Z,9.80
2023-01-29T02:02:24.048Z,8.10
2023-01-29T02:05:10.785Z,8.20
2023-01-29T02:07:57.439Z,8.00
2023-01-29T02:10:25.408Z,6.80
2023-01-29T02:12:53.177Z,6.10
2023-01-29T02:15:20.940Z,6.40
2023-01-29T02:17:48.747Z,6.80
2023-01-29T02:20:16.657Z,6.00
2023-01-29T02:22:44.533Z,7.70
2023-01-29T02:25:12.400Z,6.70
2023-01-29T02:27:40.167Z,7.20
2023-01-29T02:30:07.934Z,5.90
2023-01-29T02:32:35.901Z,5.70
2023-01-29T02:35:22.301Z,6.50
2023-01-29T02:37:49.960Z,4.90
2023-01-29T02:40:17.869Z,6.70
2023-01-29T02:42:45.898Z,7.10
2023-01-29T02:45:13.562Z,7.50
2023-01-29T02:47:41.322Z,6.30
2023-01-29T02:50:09.090Z,8.30
2023-01-29T02:52:36.850Z,7.10
2023-01-29T02:55:05.024Z,6.30
2023-01-29T02:57:32.794Z,7.50
2023-01-29T03:00:00.452Z,8.50
2023-01-29T03:02:28.230Z,8.10
2023-01-29T03:04:55.978Z,8.00
2023-01-29T03:07:43.093Z,8.20
2023-01-29T03:10:10.859Z,9.30
2023-01-29T03:12:38.520Z,7.60
2023-01-29T03:15:12.440Z,8.00
2023-01-29T03:17:40.193Z,6.30
2023-01-29T03:20:08.366Z,8.60
2023-01-29T03:22:36.024Z,7.00
2023-01-29T03:25:22.631Z,6.10
2023-01-29T03:28:09.337Z,8.40
2023-01-29T03:30:55.791Z,7.40
2023-01-29T03:33:23.505Z,6.40
2023-01-29T03:35:52.194Z,6.20
2023-01-29T03:38:19.956Z,6.40
2023-01-29T03:40:47.624Z,5.50
2023-01-29T03:43:15.378Z,5.50
2023-01-29T03:45:43.207Z,5.80
2023-01-29T03:48:11.111Z,5.20
2023-01-29T03:50:38.975Z,5.10
2023-01-29T03:53:06.749Z,5.20
2023-01-29T03:55:34.509Z,6.00
2023-01-29T03:58:02.269Z,5.20
2023-01-29T04:00:29.934Z,7.20
2023-01-29T04:02:57.695Z,7.50
2023-01-29T04:05:25.567Z,6.80
2023-01-29T04:07:53.323Z,5.50
2023-01-29T04:10:21.089Z,6.30
2023-01-29T04:12:48.865Z,5.10
2023-01-29T04:15:16.723Z,4.40
2023-01-29T04:17:44.481Z,7.70
2023-01-29T04:20:12.246Z,5.10
2023-01-29T04:22:39.914Z,7.90
2023-01-29T04:25:08.798Z,4.50
2023-01-29T04:27:36.561Z,7.70
2023-01-29T04:30:04.329Z,7.20
2023-01-29T04:32:32.101Z,7.20
2023-01-29T04:34:59.854Z,4.40
2023-01-29T04:37:27.623Z,7.50
2023-01-29T04:39:55.486Z,7.80
2023-01-29T04:42:23.249Z,7.30
2023-01-29T04:44:50.905Z,7.80
2023-01-29T04:47:18.819Z,7.30
2023-01-29T04:49:46.539Z,8.40
2023-01-29T04:52:14.199Z,8.60
2023-01-29T04:54:41.861Z,6.90
2023-01-29T04:57:09.933Z,7.80
2023-01-29T04:59:37.697Z,5.20
2023-01-29T05:02:05.460Z,6.20
2023-01-29T05:04:33.128Z,6.70
2023-01-29T05:07:00.886Z,5.60
2023-01-29T05:09:28.556Z,6.30
2023-01-29T05:11:56.314Z,4.60
2023-01-29T05:14:24.079Z,6.30
2023-01-29T05:16:51.740Z,6.50
2023-01-29T05:19:19.502Z,6.40
2023-01-29T05:21:47.167Z,7.20
2023-01-29T05:24:14.912Z,5.70
2023-01-29T05:27:01.228Z,5.30
2023-01-29T05:29:28.888Z,6.00
2023-01-29T05:31:56.606Z,7.80
2023-01-29T05:34:24.418Z,6.60
2023-01-29T05:36:52.189Z,4.40
2023-01-29T05:39:19.948Z,5.50
2023-01-29T05:41:47.710Z,5.90
2023-01-29T05:44:15.592Z,6.00
2023-01-29T05:46:44.308Z,5.40
2023-01-29T05:49:12.123Z,6.50
2023-01-29T05:51:39.888Z,5.70
2023-01-29T05:54:07.655Z,6.00
2023-01-29T05:56:35.414Z,6.60
2023-01-29T05:59:03.294Z,6.80
2023-01-29T06:01:31.040Z,5.40
2023-01-29T06:03:58.911Z,6.00
2023-01-29T06:06:26.573Z,6.10
2023-01-29T06:08:54.336Z,5.20
2023-01-29T06:11:22.099Z,6.20
2023-01-29T06:13:49.865Z,4.40
2023-01-29T06:16:17.708Z,6.60
2023-01-29T06:18:45.598Z,6.00
2023-01-29T06:21:13.365Z,5.40
2023-01-29T06:23:41.124Z,6.60
2023-01-29T06:26:08.891Z,5.90
2023-01-29T06:28:36.654Z,5.90
2023-01-29T06:31:23.771Z,5.20
2023-01-29T06:33:52.049Z,5.50
2023-01-29T06:36:19.816Z,4.70
2023-01-29T06:38:47.702Z,6.50
2023-01-29T06:41:15.543Z,5.70
2023-01-29T06:43:43.303Z,6.50
2023-01-29T06:46:10.968Z,6.60
2023-01-29T06:48:38.737Z,7.00
2023-01-29T06:51:06.497Z,5.40
2023-01-29T06:53:34.259Z,6.40
2023-01-29T06:56:02.025Z,6.70
2023-01-29T06:58:29.825Z,8.30
2023-01-29T07:00:57.901Z,5.70
2023-01-29T07:03:25.724Z,5.30
2023-01-29T07:05:53.591Z,8.00
2023-01-29T07:08:22.991Z,6.50
2023-01-29T07:10:50.962Z,5.60
2023-01-29T07:13:18.724Z,6.10
2023-01-29T07:15:46.487Z,4.90
2023-01-29T07:18:14.267Z,5.40
2023-01-29T07:20:42.119Z,5.30
2023-01-29T07:23:09.885Z,7.00
2023-01-29T07:25:37.646Z,5.80
2023-01-29T07:28:05.309Z,5.80
2023-01-29T07:30:33.031Z,7.80
2023-01-29T07:33:00.736Z,5.40
2023-01-29T07:35:28.496Z,5.70
2023-01-29T07:37:56.266Z,6.20
2023-01-29T07:40:24.026Z,7.60
2023-01-29T07:42:51.789Z,7.60
2023-01-29T07:45:19.552Z,14.20
2023-01-29T07:47:47.225Z,23.50
2023-01-29T07:50:15.373Z,31.90
2023-01-29T07:52:43.358Z,19.10
2023-01-29T07:55:11.018Z,7.70
2023-01-29T07:57:38.796Z,9.20
2023-01-29T08:00:06.545Z,11.60
2023-01-29T08:02:34.391Z,15.10
2023-01-29T08:05:02.175Z,17.10
2023-01-29T08:07:29.939Z,20.80
2023-01-29T08:09:57.708Z,15.30
2023-01-29T08:12:25.467Z,19.90
2023-01-29T08:14:53.232Z,20.10
2023-01-29T08:17:21.000Z,29.70
2023-01-29T08:19:48.761Z,27.00
2023-01-29T08:22:16.840Z,23.10
2023-01-29T08:24:53.716Z,19.70
2023-01-29T08:27:27.927Z,16.10
2023-01-29T08:29:55.685Z,24.60
2023-01-29T08:32:23.363Z,11.10
2023-01-29T08:34:51.130Z,10.30
2023-01-29T08:37:18.887Z,8.40
2023-01-29T08:39:46.657Z,6.70
2023-01-29T08:42:14.403Z,5.70
2023-01-29T08:44:42.169Z,6.50
2023-01-29T08:47:09.828Z,7.50
2023-01-29T08:49:37.598Z,6.90
2023-01-29T08:52:05.254Z,9.70
2023-01-29T08:54:33.017Z,7.80
2023-01-29T08:57:00.782Z,5.90
2023-01-29T08:59:28.445Z,7.60
2023-01-29T09:01:56.208Z,5.80
2023-01-29T09:04:23.868Z,5.30
2023-01-29T09:06:51.632Z,4.20
2023-01-29T09:09:19.294Z,9.80
2023-01-29T09:11:47.057Z,7.50
2023-01-29T09:14:14.926Z,10.60
2023-01-29T09:16:42.812Z,5.90
2023-01-29T09:19:10.556Z,6.40
2023-01-29T09:21:38.224Z,9.90
2023-01-29T09:24:05.979Z,6.60
2023-01-29T09:26:33.672Z,11.80
2023-01-29T09:29:01.510Z,6.00
2023-01-29T09:31:29.344Z,5.50
2023-01-29T09:33:57.239Z,8.00
2023-01-29T09:36:25.010Z,4.40
2023-01-29T09:38:52.767Z,5.80
2023-01-29T09:41:20.427Z,16.60
2023-01-29T09:43:48.500Z,4.70
2023-01-29T09:46:16.312Z,6.20
2023-01-29T09:48:44.133Z,7.00
2023-01-29T09:51:11.895Z,5.30
2023-01-29T09:53:39.711Z,5.90
2023-01-29T09:56:07.421Z,4.40
2023-01-29T09:58:35.915Z,10.70
2023-01-29T10:01:03.720Z,6.90
2023-01-29T10:03:31.430Z,6.70
2023-01-29T10:05:59.092Z,5.20
2023-01-29T10:08:26.964Z,4.70
2023-01-29T10:10:55.334Z,5.30
2023-01-29T10:13:23.102Z,6.20
2023-01-29T10:15:50.968Z,7.10
2023-01-29T10:18:18.749Z,5.00
2023-01-29T10:20:46.502Z,6.40
2023-01-29T10:23:14.260Z,5.40
2023-01-29T10:25:42.037Z,4.80
2023-01-29T10:28:09.787Z,7.00
2023-01-29T10:30:37.565Z,5.50
2023-01-29T10:33:05.315Z,6.00
2023-01-29T10:35:33.076Z,4.40
2023-01-29T10:38:00.840Z,4.80
2023-01-29T10:40:28.502Z,6.40
2023-01-29T10:42:57.494Z,5.50
2023-01-29T10:45:25.155Z,5.40
2023-01-29T10:47:53.116Z,4.60
2023-01-29T10:50:20.995Z,4.40
2023-01-29T10:52:50.110Z,4.70
2023-01-29T10:55:18.120Z,9.00
2023-01-29T10:57:46.126Z,7.10
2023-01-29T11:00:13.903Z,5.80
2023-01-29T11:02:41.742Z,4.50
2023-01-29T11:05:10.313Z,5.30
2023-01-29T11:07:38.122Z,6.50
2023-01-29T11:10:05.870Z,4.20
2023-01-29T11:12:33.946Z,4.60
2023-01-29T11:15:01.702Z,5.20
2023-01-29T11:17:29.479Z,4.60
2023-01-29T11:19:57.192Z,4.80
2023-01-29T11:22:24.993Z,4.70
2023-01-29T11:24:52.779Z,4.90
2023-01-29T11:27:20.521Z,5.00
2023-01-29T11:29:48.409Z,6.80
2023-01-29T11:32:16.151Z,5.90
2023-01-29T11:34:43.918Z,7.40
2023-01-29T11:37:11.684Z,6.70
2023-01-29T11:39:39.442Z,6.30
2023-01-29T11:42:13.502Z,5.80
2023-01-29T11:44:41.829Z,6.00
2023-01-29T11:47:09.495Z,5.50
2023-01-29T11:49:37.667Z,5.70
2023-01-29T11:52:05.337Z,5.90
2023-01-29T11:54:33.603Z,5.30
2023-01-29T11:57:01.572Z,5.00
2023-01-29T11:59:29.244Z,5.10
2023-01-29T12:01:57.210Z,4.90
2023-01-29T12:04:24.965Z,6.10
2023-01-29T12:06:53.352Z,5.00
2023-01-29T12:09:21.113Z,6.70
2023-01-29T12:11:48.872Z,5.40
2023-01-29T12:14:16.636Z,5.60
2023-01-29T12:16:44.403Z,6.80
2023-01-29T12:19:12.169Z,7.30
2023-01-29T12:21:40.132Z,5.70
2023-01-29T12:24:07.910Z,5.80
2023-01-29T12:26:35.713Z,6.50
2023-01-29T12:29:03.526Z,6.70
2023-01-29T12:31:31.201Z,5.10
2023-01-29T12:33:58.954Z,6.10
2023-01-29T12:36:26.717Z,6.70
2023-01-29T12:38:54.480Z,7.10
2023-01-29T12:41:22.344Z,6.90
2023-01-29T12:43:50.111Z,6.90
2023-01-29T12:46:17.771Z,8.50
2023-01-29T12:48:45.537Z,6.10
2023-01-29T12:51:13.301Z,6.10
2023-01-29T12:53:41.062Z,7.60
2023-01-29T12:56:08.724Z,4.70
2023-01-29T12:58:36.805Z,6.50
2023-01-29T13:01:04.612Z,8.10
2023-01-29T13:03:32.701Z,11.70
2023-01-29T13:06:00.497Z,8.30
2023-01-29T13:08:28.260Z,8.00
2023-01-29T13:10:55.926Z,8.90
2023-01-29T13:13:23.685Z,8.40
2023-01-29T13:15:51.456Z,7.00
2023-01-29T13:18:19.213Z,6.70
2023-01-29T13:20:46.874Z,8.40
2023-01-29T13:23:14.537Z,12.50
2023-01-29T13:25:42.305Z,7.40
2023-01-29T13:28:09.962Z,8.00
2023-01-29T13:30:37.656Z,10.60
2023-01-29T13:33:12.103Z,10.70
2023-01-29T13:35:40.528Z,11.90
2023-01-29T13:38:08.185Z,11.30
2023-01-29T13:40:36.050Z,10.70
2023-01-29T13:43:04.225Z,11.20
2023-01-29T13:45:31.992Z,12.10
2023-01-29T13:47:59.621Z,12.00
2023-01-29T13:50:27.618Z,10.00
2023-01-29T13:52:55.280Z,12.00
2023-01-29T13:55:24.181Z,9.10
2023-01-29T13:57:54.705Z,8.80
2023-01-29T14:00:31.072Z,11.30
2023-01-29T14:02:58.829Z,9.40
2023-01-29T14:05:26.703Z,8.60
2023-01-29T14:07:54.459Z,10.50
2023-01-29T14:10:22.224Z,7.10
2023-01-29T14:12:49.988Z,9.30
2023-01-29T14:15:20.989Z,9.10
2023-01-29T14:17:49.207Z,15.50
2023-01-29T14:20:16.969Z,12.00
2023-01-29T14:22:44.726Z,10.20
2023-01-29T14:25:12.389Z,12.40
2023-01-29T14:27:40.161Z,11.10
2023-01-29T14:30:07.931Z,14.60
2023-01-29T14:32:35.784Z,13.40
2023-01-29T14:35:03.445Z,11.90
2023-01-29T14:37:31.253Z,9.10
2023-01-29T14:39:58.980Z,9.70
2023-01-29T14:42:26.634Z,9.10
2023-01-29T14:44:54.295Z,11.80
2023-01-29T14:47:22.062Z,9.90
2023-01-29T14:49:49.825Z,13.70
2023-01-29T14:52:17.799Z,13.30
2023-01-29T14:54:45.461Z,9.70
2023-01-29T14:57:13.220Z,13.90
2023-01-29T14:59:40.881Z,10.60
2023-01-29T15:02:08.541Z,9.90
2023-01-29T15:04:36.305Z,10.10
2023-01-29T15:07:06.736Z,8.70
2023-01-29T15:09:36.661Z,9.40
2023-01-29T15:12:04.815Z,13.10
2023-01-29T15:14:32.614Z,14.40
2023-01-29T15:17:00.358Z,12.30
2023-01-29T15:19:28.111Z,17.20
2023-01-29T15:21:55.874Z,16.60
2023-01-29T15:24:23.741Z,14.80
2023-01-29T15:26:51.529Z,18.70
2023-01-29T15:29:19.370Z,19.50
2023-01-29T15:31:48.005Z,13.80
2023-01-29T15:34:15.921Z,12.90
2023-01-29T15:36:43.686Z,14.30
2023-01-29T15:39:11.350Z,13.00
2023-01-29T15:41:39.114Z,11.20
2023-01-29T15:44:06.774Z,13.10
2023-01-29T15:46:34.536Z,13.20
2023-01-29T15:49:02.301Z,13.00
2023-01-29T15:51:29.971Z,16.60
2023-01-29T15:53:57.725Z,14.60
2023-01-29T15:56:25.387Z,8.10
2023-01-29T15:58:53.158Z,10.20
2023-01-29T16:01:20.859Z,9.80
2023-01-29T16:03:48.575Z,10.10
2023-01-29T16:06:16.545Z,9.80
2023-01-29T16:08:44.206Z,9.50
2023-01-29T16:11:11.866Z,8.80
2023-01-29T16:13:39.544Z,11.30
2023-01-29T16:16:08.689Z,7.80
2023-01-29T16:18:36.923Z,11.50
2023-01-29T16:21:06.711Z,11.30
2023-01-29T16:23:35.088Z,9.70
2023-01-29T16:26:02.853Z,10.20
2023-01-29T16:28:30.521Z,10.40
2023-01-29T16:30:58.570Z,6.90
2023-01-29T16:33:26.660Z,8.20
2023-01-29T16:35:54.425Z,8.40
2023-01-29T16:38:22.086Z,10.50
2023-01-29T16:40:49.846Z,9.70
2023-01-29T16:43:17.513Z,7.80
2023-01-29T16:45:45.377Z,10.20
2023-01-29T16:48:13.037Z,21.40
2023-01-29T16:50:54.375Z,12.50
2023-01-29T16:53:24.744Z,10.50
2023-01-29T16:55:52.548Z,9.70
2023-01-29T16:58:20.389Z,9.20
2023-01-29T17:00:48.078Z,10.60
2023-01-29T17:03:15.798Z,7.60
2023-01-29T17:05:43.563Z,9.50
2023-01-29T17:08:11.225Z,8.10
2023-01-29T17:10:38.987Z,8.00
2023-01-29T17:13:06.872Z,6.70
2023-01-29T17:15:34.620Z,7.40
2023-01-29T17:18:02.381Z,8.80
2023-01-29T17:20:30.042Z,9.20
2023-01-29T17:22:57.707Z,8.70
2023-01-29T17:25:25.468Z,9.10
2023-01-29T17:27:53.137Z,7.60
2023-01-29T17:30:20.930Z,8.50
2023-01-29T17:32:48.761Z,6.30
2023-01-29T17:35:17.574Z,7.50
2023-01-29T17:37:45.978Z,10.60
2023-01-29T17:40:13.796Z,8.80
2023-01-29T17:42:41.659Z,10.00
2023-01-29T17:45:11.062Z,8.50
2023-01-29T17:47:38.829Z,9.70
2023-01-29T17:50:06.594Z,11.20
2023-01-29T17:52:34.353Z,14.20
2023-01-29T17:55:02.117Z,11.50
2023-01-29T17:57:32.581Z,18.40
2023-01-29T18:00:00.522Z,15.40
2023-01-29T18:02:28.482Z,17.70
2023-01-29T18:04:57.687Z,11.10
2023-01-29T18:07:25.466Z,15.10
2023-01-29T18:09:53.212Z,9.10
2023-01-29T18:12:20.869Z,12.10
2023-01-29T18:14:48.531Z,10.40
2023-01-29T18:17:22.439Z,12.70
2023-01-29T18:19:50.142Z,15.00
2023-01-29T18:22:17.864Z,11.40
2023-01-29T18:24:45.645Z,11.00
2023-01-29T18:27:13.389Z,12.30
2023-01-29T18:29:41.159Z,15.00
2023-01-29T18:32:08.921Z,15.50
2023-01-29T18:34:36.683Z,16.80
2023-01-29T18:37:04.652Z,12.30
2023-01-29T18:39:32.318Z,12.30
2023-01-29T18:42:00.022Z,11.60
2023-01-29T18:44:29.886Z,9.70
2023-01-29T18:46:57.656Z,12.30
2023-01-29T18:49:25.416Z,12.10
2023-01-29T18:51:53.180Z,10.20
2023-01-29T18:54:21.673Z,23.40
2023-01-29T18:57:12.875Z,38.90
2023-01-29T18:59:37.157Z,15.00
2023-01-29T19:02:05.277Z,13.70
2023-01-29T19:04:33.097Z,19.40
2023-01-29T19:07:00.858Z,13.70
2023-01-29T19:09:28.727Z,12.70
2023-01-29T19:11:56.498Z,15.20
2023-01-29T19:14:24.251Z,10.30
2023-01-29T19:16:51.973Z,9.00
2023-01-29T19:19:20.399Z,14.60
2023-01-29T19:21:48.159Z,13.30
2023-01-29T19:24:16.025Z,11.80
2023-01-29T19:26:43.736Z,10.50
2023-01-29T19:29:11.764Z,9.00
2023-01-29T19:31:39.578Z,10.90
2023-01-29T19:34:07.395Z,10.50
2023-01-29T19:36:35.152Z,11.40
2023-01-29T19:39:02.915Z,11.70
2023-01-29T19:41:30.786Z,13.30
2023-01-29T19:43:58.648Z,13.50
2023-01-29T19:46:26.417Z,10.00
2023-01-29T19:48:57.145Z,16.30
2023-01-29T19:51:24.909Z,21.10
2023-01-29T19:53:52.675Z,17.00
2023-01-29T19:56:20.648Z,12.90
2023-01-29T19:58:48.420Z,26.90
2023-01-29T20:01:16.172Z,13.50
2023-01-29T20:03:46.696Z,11.70
2023-01-29T20:06:14.463Z,10.60
2023-01-29T20:08:42.177Z,14.70
2023-01-29T20:11:10.095Z,9.20
2023-01-29T20:13:37.962Z,10.30
2023-01-29T20:16:05.836Z,11.80
2023-01-29T20:18:33.692Z,12.50
2023-01-29T20:21:01.353Z,9.60
2023-01-29T20:23:37.661Z,9.40
2023-01-29T20:26:06.104Z,11.10
2023-01-29T20:28:34.784Z,10.30
2023-01-29T20:31:03.242Z,16.10
2023-01-29T20:33:32.770Z,8.00
2023-01-29T20:36:00.639Z,9.50
2023-01-29T20:38:31.983Z,11.90
2023-01-29T20:40:59.853Z,14.60
2023-01-29T20:43:27.611Z,8.70
2023-01-29T20:45:55.400Z,15.10
2023-01-29T20:48:23.558Z,10.10
2023-01-29T20:50:51.416Z,9.40
2023-01-29T20:53:19.587Z,14.00
2023-01-29T20:55:47.969Z,12.80
2023-01-29T20:58:15.835Z,12.10
2023-01-29T21:00:43.616Z,13.20
2023-01-29T21:03:11.361Z,12.30
2023-01-29T21:05:39.125Z,11.70
2023-01-29T21:08:06.788Z,11.80
2023-01-29T21:10:34.550Z,13.20
2023-01-29T21:13:02.313Z,10.90
2023-01-29T21:15:30.077Z,11.30
2023-01-29T21:17:59.788Z,15.40
2023-01-29T21:20:27.449Z,10.20
2023-01-29T21:22:55.522Z,15.80
2023-01-29T21:25:23.698Z,10.90
2023-01-29T21:27:51.458Z,13.10
2023-01-29T21:30:19.598Z,9.60
2023-01-29T21:32:47.701Z,10.90
2023-01-29T21:35:16.695Z,9.90
2023-01-29T21:37:44.458Z,13.80
2023-01-29T21:40:12.127Z,13.10
2023-01-29T21:42:58.520Z,15.10
2023-01-29T21:45:26.284Z,12.10
2023-01-29T21:47:54.048Z,10.10
2023-01-29T21:50:21.818Z,9.80
2023-01-29T21:52:49.576Z,11.30
2023-01-29T21:55:17.442Z,10.10
2023-01-29T21:57:46.966Z,10.60
2023-01-29T22:00:14.826Z,13.10
2023-01-29T22:02:42.940Z,10.20
2023-01-29T22:05:18.623Z,12.80
2023-01-29T22:07:47.442Z,14.10
2023-01-29T22:10:15.838Z,12.70
2023-01-29T22:12:44.900Z,11.70
2023-01-29T22:15:12.659Z,12.40
2023-01-29T22:17:41.786Z,12.30
2023-01-29T22:20:09.619Z,12.90
2023-01-29T22:22:37.393Z,16.40
2023-01-29T22:25:05.189Z,16.60
2023-01-29T22:27:33.527Z,13.70
2023-01-29T22:30:01.293Z,10.70
2023-01-29T22:32:29.091Z,12.50
2023-01-29T22:34:56.923Z,13.90
2023-01-29T22:37:24.687Z,10.80
2023-01-29T22:39:52.452Z,8.40
2023-01-29T22:42:20.891Z,12.20
2023-01-29T22:44:48.910Z,10.00
2023-01-29T22:47:16.663Z,8.70
2023-01-29T22:49:45.780Z,15.00
2023-01-29T22:52:13.902Z,13.10
2023-01-29T22:54:41.599Z,11.80
2023-01-29T22:57:10.328Z,13.50
2023-01-29T22:59:38.042Z,9.10
2023-01-29T23:02:07.955Z,10.40
2023-01-29T23:04:35.736Z,11.90
2023-01-29T23:07:03.596Z,8.60
2023-01-29T23:09:31.280Z,10.00
2023-01-29T23:11:59.016Z,9.20
2023-01-29T23:14:26.674Z,10.50
2023-01-29T23:16:54.440Z,14.70
2023-01-29T23:19:22.203Z,14.60
2023-01-29T23:21:49.976Z,9.30
2023-01-29T23:24:17.729Z,12.00
2023-01-29T23:27:04.437Z,12.40
2023-01-29T23:29:32.200Z,10.60
2023-01-29T23:31:59.892Z,11.10
2023-01-29T23:34:27.630Z,8.40
2023-01-29T23:36:55.391Z,10.80
2023-01-29T23:39:23.154Z,11.20
2023-01-29T23:41:50.930Z,13.00
2023-01-29T23:44:18.784Z,12.30
2023-01-29T23:46:46.481Z,12.60
2023-01-29T23:49:14.209Z,7.70
2023-01-29T23:51:41.974Z,11.20
2023-01-29T23:54:09.639Z,12.50
2023-01-29T23:56:37.297Z,8.80
2023-01-29T23:59:05.063Z,10.20
